sensor_id;sensor_type;location;lat;lon;timestamp;P1;durP1;ratioP1;P2;durP2;ratioP2
22557;SDS011;11445;53.816;8.902;2022-10-16T00:00:48;15.95;;;6.32;;
22557;SDS011;11445;53.816;8.902;2022-10-16T00:03:15;10.65;;;5.75;;
22557;SDS011;11445;53.816;8.902;2022-10-16T00:05:42;16.08;;;6.75;;
22557;SDS011;11445;53.816;8.902;2022-10-16T00:08:10;15.32;;;5.88;;
22557;SDS011;11445;53.816;8.902;2022-10-16T00:10:38;8.98;;;5.85;;
22557;SDS011;11445;53.816;8.902;2022-10-16T00:13:07;10.68;;;5.60;;
22557;SDS011;11445;53.816;8.902;2022-10-16T00:15:35;9.02;;;5.68;;
22557;SDS011;11445;53.816;8.902;2022-10-16T00:18:04;13.60;;;5.90;;
22557;SDS011;11445;53.816;8.902;2022-10-16T00:20:33;9.07;;;5.70;;
22557;SDS011;11445;53.816;8.902;2022-10-16T00:23:02;11.15;;;5.93;;
22557;SDS011;11445;53.816;8.902;2022-10-16T00:25:30;13.10;;;6.05;;
22557;SDS011;11445;53.816;8.902;2022-10-16T00:27:58;13.13;;;5.65;;
22557;SDS011;11445;53.816;8.902;2022-10-16T00:30:27;9.35;;;5.80;;
22557;SDS011;11445;53.816;8.902;2022-10-16T00:32:54;15.23;;;5.75;;
22557;SDS011;11445;53.816;8.902;2022-10-16T00:35:21;9.05;;;5.15;;
22557;SDS011;11445;53.816;8.902;2022-10-16T00:37:48;10.00;;;5.28;;
22557;SDS011;11445;53.816;8.902;2022-10-16T00:40:15;13.43;;;6.28;;
22557;SDS011;11445;53.816;8.902;2022-10-16T00:42:43;16.20;;;5.80;;
22557;SDS011;11445;53.816;8.902;2022-10-16T00:45:10;13.60;;;5.47;;
22557;SDS011;11445;53.816;8.902;2022-10-16T00:47:39;13.93;;;5.82;;
22557;SDS011;11445;53.816;8.902;2022-10-16T00:50:10;11.00;;;5.55;;
22557;SDS011;11445;53.816;8.902;2022-10-16T00:52:43;11.93;;;5.40;;
22557;SDS011;11445;53.816;8.902;2022-10-16T00:55:12;12.18;;;5.35;;
22557;SDS011;11445;53.816;8.902;2022-10-16T00:57:40;13.23;;;5.63;;
22557;SDS011;11445;53.816;8.902;2022-10-16T01:00:09;8.32;;;4.90;;
22557;SDS011;11445;53.816;8.902;2022-10-16T01:02:40;17.15;;;5.20;;
22557;SDS011;11445;53.816;8.902;2022-10-16T01:05:07;16.65;;;5.32;;
22557;SDS011;11445;53.816;8.902;2022-10-16T01:07:36;11.68;;;4.93;;
22557;SDS011;11445;53.816;8.902;2022-10-16T01:10:14;8.18;;;4.50;;
22557;SDS011;11445;53.816;8.902;2022-10-16T01:12:53;10.80;;;4.55;;
22557;SDS011;11445;53.816;8.902;2022-10-16T01:15:25;12.40;;;5.13;;
22557;SDS011;11445;53.816;8.902;2022-10-16T01:17:59;13.25;;;4.97;;
22557;SDS011;11445;53.816;8.902;2022-10-16T01:20:32;8.52;;;4.78;;
22557;SDS011;11445;53.816;8.902;2022-10-16T01:23:07;10.32;;;4.13;;
22557;SDS011;11445;53.816;8.902;2022-10-16T01:25:59;7.43;;;4.25;;
22557;SDS011;11445;53.816;8.902;2022-10-16T01:28:49;10.52;;;4.82;;
22557;SDS011;11445;53.816;8.902;2022-10-16T01:33:50;10.80;;;4.53;;
22557;SDS011;11445;53.816;8.902;2022-10-16T01:36:23;10.18;;;4.28;;
22557;SDS011;11445;53.816;8.902;2022-10-16T01:38:55;7.28;;;4.72;;
22557;SDS011;11445;53.816;8.902;2022-10-16T01:41:26;9.15;;;4.45;;
22557;SDS011;11445;53.816;8.902;2022-10-16T01:44:01;9.82;;;4.10;;
22557;SDS011;11445;53.816;8.902;2022-10-16T01:46:31;10.20;;;4.45;;
22557;SDS011;11445;53.816;8.902;2022-10-16T01:49:00;11.10;;;5.55;;
22557;SDS011;11445;53.816;8.902;2022-10-16T01:51:29;11.52;;;4.10;;
22557;SDS011;11445;53.816;8.902;2022-10-16T01:53:57;6.85;;;3.95;;
22557;SDS011;11445;53.816;8.902;2022-10-16T01:56:27;9.23;;;3.90;;
22557;SDS011;11445;53.816;8.902;2022-10-16T01:58:56;6.32;;;4.00;;
22557;SDS011;11445;53.816;8.902;2022-10-16T02:01:29;9.95;;;3.80;;
22557;SDS011;11445;53.816;8.902;2022-10-16T02:04:02;6.93;;;3.97;;
22557;SDS011;11445;53.816;8.902;2022-10-16T02:06:34;10.30;;;3.88;;
22557;SDS011;11445;53.816;8.902;2022-10-16T02:09:01;12.48;;;3.83;;
22557;SDS011;11445;53.816;8.902;2022-10-16T02:11:28;8.52;;;3.80;;
22557;SDS011;11445;53.816;8.902;2022-10-16T02:13:57;7.72;;;3.40;;
22557;SDS011;11445;53.816;8.902;2022-10-16T02:16:33;6.63;;;3.20;;
22557;SDS011;11445;53.816;8.902;2022-10-16T02:19:02;8.05;;;3.70;;
22557;SDS011;11445;53.816;8.902;2022-10-16T02:21:30;9.18;;;3.40;;
22557;SDS011;11445;53.816;8.902;2022-10-16T02:24:07;8.88;;;3.60;;
22557;SDS011;11445;53.816;8.902;2022-10-16T02:26:39;8.43;;;3.55;;
22557;SDS011;11445;53.816;8.902;2022-10-16T02:29:16;8.88;;;3.80;;
22557;SDS011;11445;53.816;8.902;2022-10-16T02:31:50;9.35;;;3.83;;
22557;SDS011;11445;53.816;8.902;2022-10-16T02:34:21;10.82;;;3.65;;
22557;SDS011;11445;53.816;8.902;2022-10-16T02:36:51;10.95;;;3.05;;
22557;SDS011;11445;53.816;8.902;2022-10-16T02:39:19;4.97;;;3.20;;
22557;SDS011;11445;53.816;8.902;2022-10-16T02:41:47;5.80;;;2.95;;
22557;SDS011;11445;53.816;8.902;2022-10-16T02:44:14;8.70;;;3.20;;
22557;SDS011;11445;53.816;8.902;2022-10-16T02:46:41;9.32;;;2.80;;
22557;SDS011;11445;53.816;8.902;2022-10-16T02:49:10;6.85;;;3.10;;
22557;SDS011;11445;53.816;8.902;2022-10-16T02:51:37;9.27;;;2.97;;
22557;SDS011;11445;53.816;8.902;2022-10-16T02:54:04;7.40;;;3.17;;
22557;SDS011;11445;53.816;8.902;2022-10-16T02:56:31;8.32;;;2.90;;
22557;SDS011;11445;53.816;8.902;2022-10-16T02:58:58;5.75;;;2.70;;
22557;SDS011;11445;53.816;8.902;2022-10-16T03:01:25;6.35;;;3.00;;
22557;SDS011;11445;53.816;8.902;2022-10-16T03:03:52;6.53;;;2.88;;
22557;SDS011;11445;53.816;8.902;2022-10-16T03:06:20;7.80;;;2.67;;
22557;SDS011;11445;53.816;8.902;2022-10-16T03:08:47;11.50;;;2.65;;
22557;SDS011;11445;53.816;8.902;2022-10-16T03:11:14;16.27;;;2.78;;
22557;SDS011;11445;53.816;8.902;2022-10-16T03:13:41;9.85;;;2.63;;
22557;SDS011;11445;53.816;8.902;2022-10-16T03:16:08;6.47;;;2.42;;
22557;SDS011;11445;53.816;8.902;2022-10-16T03:18:35;4.05;;;2.33;;
22557;SDS011;11445;53.816;8.902;2022-10-16T03:21:03;5.95;;;2.97;;
22557;SDS011;11445;53.816;8.902;2022-10-16T03:23:31;6.40;;;2.63;;
22557;SDS011;11445;53.816;8.902;2022-10-16T03:25:58;15.38;;;2.80;;
22557;SDS011;11445;53.816;8.902;2022-10-16T03:28:25;8.80;;;2.20;;
22557;SDS011;11445;53.816;8.902;2022-10-16T03:30:52;6.72;;;2.35;;
22557;SDS011;11445;53.816;8.902;2022-10-16T03:33:19;5.93;;;2.47;;
22557;SDS011;11445;53.816;8.902;2022-10-16T03:35:50;10.88;;;2.42;;
22557;SDS011;11445;53.816;8.902;2022-10-16T03:38:18;7.43;;;2.47;;
22557;SDS011;11445;53.816;8.902;2022-10-16T03:40:46;4.50;;;2.35;;
22557;SDS011;11445;53.816;8.902;2022-10-16T03:43:13;6.40;;;2.00;;
22557;SDS011;11445;53.816;8.902;2022-10-16T03:45:40;6.47;;;1.98;;
22557;SDS011;11445;53.816;8.902;2022-10-16T03:48:07;4.78;;;2.33;;
22557;SDS011;11445;53.816;8.902;2022-10-16T03:50:34;3.80;;;2.10;;
22557;SDS011;11445;53.816;8.902;2022-10-16T03:53:02;7.82;;;2.25;;
22557;SDS011;11445;53.816;8.902;2022-10-16T03:55:29;10.77;;;2.38;;
22557;SDS011;11445;53.816;8.902;2022-10-16T03:57:57;5.88;;;2.10;;
22557;SDS011;11445;53.816;8.902;2022-10-16T04:00:24;11.18;;;2.47;;
22557;SDS011;11445;53.816;8.902;2022-10-16T04:02:51;7.32;;;2.30;;
22557;SDS011;11445;53.816;8.902;2022-10-16T04:05:18;4.20;;;1.92;;
22557;SDS011;11445;53.816;8.902;2022-10-16T04:07:45;8.63;;;2.28;;
22557;SDS011;11445;53.816;8.902;2022-10-16T04:10:12;5.38;;;2.00;;
22557;SDS011;11445;53.816;8.902;2022-10-16T04:12:39;4.72;;;1.90;;
22557;SDS011;11445;53.816;8.902;2022-10-16T04:15:08;9.05;;;2.70;;
22557;SDS011;11445;53.816;8.902;2022-10-16T04:17:36;6.10;;;2.15;;
22557;SDS011;11445;53.816;8.902;2022-10-16T04:20:03;4.13;;;2.20;;
22557;SDS011;11445;53.816;8.902;2022-10-16T04:22:31;5.95;;;1.95;;
22557;SDS011;11445;53.816;8.902;2022-10-16T04:24:58;6.13;;;1.98;;
22557;SDS011;11445;53.816;8.902;2022-10-16T04:27:25;5.47;;;2.17;;
22557;SDS011;11445;53.816;8.902;2022-10-16T04:29:53;4.32;;;2.13;;
22557;SDS011;11445;53.816;8.902;2022-10-16T04:32:21;3.65;;;1.70;;
22557;SDS011;11445;53.816;8.902;2022-10-16T04:34:48;4.43;;;2.00;;
22557;SDS011;11445;53.816;8.902;2022-10-16T04:37:15;4.40;;;1.83;;
22557;SDS011;11445;53.816;8.902;2022-10-16T04:39:42;3.13;;;1.88;;
22557;SDS011;11445;53.816;8.902;2022-10-16T04:42:10;10.15;;;2.40;;
22557;SDS011;11445;53.816;8.902;2022-10-16T04:44:37;11.40;;;1.88;;
22557;SDS011;11445;53.816;8.902;2022-10-16T04:47:04;11.25;;;2.33;;
22557;SDS011;11445;53.816;8.902;2022-10-16T04:49:32;5.57;;;2.15;;
22557;SDS011;11445;53.816;8.902;2022-10-16T04:51:59;5.70;;;1.80;;
22557;SDS011;11445;53.816;8.902;2022-10-16T04:54:26;7.28;;;2.20;;
22557;SDS011;11445;53.816;8.902;2022-10-16T04:56:53;6.63;;;2.13;;
22557;SDS011;11445;53.816;8.902;2022-10-16T04:59:20;3.10;;;1.80;;
22557;SDS011;11445;53.816;8.902;2022-10-16T05:01:48;8.63;;;2.08;;
22557;SDS011;11445;53.816;8.902;2022-10-16T05:04:15;5.22;;;1.95;;
22557;SDS011;11445;53.816;8.902;2022-10-16T05:06:43;5.38;;;1.80;;
22557;SDS011;11445;53.816;8.902;2022-10-16T05:09:10;3.95;;;1.88;;
22557;SDS011;11445;53.816;8.902;2022-10-16T05:11:37;5.28;;;2.17;;
22557;SDS011;11445;53.816;8.902;2022-10-16T05:14:04;9.23;;;1.85;;
22557;SDS011;11445;53.816;8.902;2022-10-16T05:16:31;5.35;;;2.20;;
22557;SDS011;11445;53.816;8.902;2022-10-16T05:18:58;3.25;;;1.60;;
22557;SDS011;11445;53.816;8.902;2022-10-16T05:21:25;6.80;;;1.98;;
22557;SDS011;11445;53.816;8.902;2022-10-16T05:23:54;5.53;;;1.70;;
22557;SDS011;11445;53.816;8.902;2022-10-16T05:26:21;5.55;;;1.92;;
22557;SDS011;11445;53.816;8.902;2022-10-16T05:28:48;6.50;;;2.22;;
22557;SDS011;11445;53.816;8.902;2022-10-16T05:31:16;7.18;;;1.65;;
22557;SDS011;11445;53.816;8.902;2022-10-16T05:33:43;3.63;;;1.80;;
22557;SDS011;11445;53.816;8.902;2022-10-16T05:36:10;5.40;;;2.05;;
22557;SDS011;11445;53.816;8.902;2022-10-16T05:38:38;5.32;;;1.65;;
22557;SDS011;11445;53.816;8.902;2022-10-16T05:41:06;3.20;;;1.80;;
22557;SDS011;11445;53.816;8.902;2022-10-16T05:43:33;5.72;;;2.00;;
22557;SDS011;11445;53.816;8.902;2022-10-16T05:46:01;8.80;;;2.28;;
22557;SDS011;11445;53.816;8.902;2022-10-16T05:48:30;4.10;;;2.00;;
22557;SDS011;11445;53.816;8.902;2022-10-16T05:50:57;7.68;;;2.38;;
22557;SDS011;11445;53.816;8.902;2022-10-16T05:53:26;6.18;;;2.40;;
22557;SDS011;11445;53.816;8.902;2022-10-16T05:55:54;5.70;;;2.60;;
22557;SDS011;11445;53.816;8.902;2022-10-16T05:58:23;5.82;;;2.05;;
22557;SDS011;11445;53.816;8.902;2022-10-16T06:00:55;3.05;;;2.28;;
22557;SDS011;11445;53.816;8.902;2022-10-16T06:03:22;4.45;;;2.30;;
22557;SDS011;11445;53.816;8.902;2022-10-16T06:05:50;8.80;;;2.40;;
22557;SDS011;11445;53.816;8.902;2022-10-16T06:08:17;5.85;;;2.00;;
22557;SDS011;11445;53.816;8.902;2022-10-16T06:10:45;6.05;;;2.53;;
22557;SDS011;11445;53.816;8.902;2022-10-16T06:13:12;5.53;;;2.72;;
22557;SDS011;11445;53.816;8.902;2022-10-16T06:15:41;5.15;;;2.90;;
22557;SDS011;11445;53.816;8.902;2022-10-16T06:18:09;4.38;;;2.65;;
22557;SDS011;11445;53.816;8.902;2022-10-16T06:20:36;5.25;;;2.88;;
22557;SDS011;11445;53.816;8.902;2022-10-16T06:23:03;5.03;;;2.90;;
22557;SDS011;11445;53.816;8.902;2022-10-16T06:25:30;10.43;;;3.38;;
22557;SDS011;11445;53.816;8.902;2022-10-16T06:27:57;8.25;;;3.30;;
22557;SDS011;11445;53.816;8.902;2022-10-16T06:30:24;5.72;;;3.67;;
22557;SDS011;11445;53.816;8.902;2022-10-16T06:32:53;6.82;;;3.28;;
22557;SDS011;11445;53.816;8.902;2022-10-16T06:35:20;7.45;;;3.65;;
22557;SDS011;11445;53.816;8.902;2022-10-16T06:37:47;7.72;;;3.80;;
22557;SDS011;11445;53.816;8.902;2022-10-16T06:40:14;4.85;;;3.40;;
22557;SDS011;11445;53.816;8.902;2022-10-16T06:42:41;8.35;;;3.60;;
22557;SDS011;11445;53.816;8.902;2022-10-16T06:45:09;7.63;;;3.92;;
22557;SDS011;11445;53.816;8.902;2022-10-16T06:47:36;7.40;;;3.60;;
22557;SDS011;11445;53.816;8.902;2022-10-16T06:50:05;13.52;;;4.57;;
22557;SDS011;11445;53.816;8.902;2022-10-16T06:52:32;10.25;;;4.18;;
22557;SDS011;11445;53.816;8.902;2022-10-16T06:55:00;11.48;;;4.07;;
22557;SDS011;11445;53.816;8.902;2022-10-16T06:57:27;7.55;;;4.53;;
22557;SDS011;11445;53.816;8.902;2022-10-16T06:59:55;8.82;;;5.05;;
22557;SDS011;11445;53.816;8.902;2022-10-16T07:02:21;8.85;;;4.80;;
22557;SDS011;11445;53.816;8.902;2022-10-16T07:04:48;9.50;;;5.20;;
22557;SDS011;11445;53.816;8.902;2022-10-16T07:07:17;11.82;;;5.53;;
22557;SDS011;11445;53.816;8.902;2022-10-16T07:09:44;11.20;;;5.25;;
22557;SDS011;11445;53.816;8.902;2022-10-16T07:12:11;8.75;;;5.10;;
22557;SDS011;11445;53.816;8.902;2022-10-16T07:14:38;9.27;;;5.47;;
22557;SDS011;11445;53.816;8.902;2022-10-16T07:17:05;14.50;;;5.20;;
22557;SDS011;11445;53.816;8.902;2022-10-16T07:19:32;8.30;;;4.70;;
22557;SDS011;11445;53.816;8.902;2022-10-16T07:21:59;12.52;;;4.70;;
22557;SDS011;11445;53.816;8.902;2022-10-16T07:24:27;6.68;;;4.85;;
22557;SDS011;11445;53.816;8.902;2022-10-16T07:26:54;7.00;;;4.50;;
22557;SDS011;11445;53.816;8.902;2022-10-16T07:29:21;12.30;;;5.78;;
22557;SDS011;11445;53.816;8.902;2022-10-16T07:31:48;9.43;;;4.53;;
22557;SDS011;11445;53.816;8.902;2022-10-16T07:34:17;9.57;;;5.60;;
22557;SDS011;11445;53.816;8.902;2022-10-16T07:36:46;7.85;;;4.97;;
22557;SDS011;11445;53.816;8.902;2022-10-16T07:39:14;10.60;;;5.03;;
22557;SDS011;11445;53.816;8.902;2022-10-16T07:41:42;13.90;;;6.47;;
22557;SDS011;11445;53.816;8.902;2022-10-16T07:44:09;10.75;;;5.47;;
22557;SDS011;11445;53.816;8.902;2022-10-16T07:46:36;11.05;;;5.35;;
22557;SDS011;11445;53.816;8.902;2022-10-16T07:49:03;10.90;;;6.10;;
22557;SDS011;11445;53.816;8.902;2022-10-16T07:51:30;13.43;;;6.00;;
22557;SDS011;11445;53.816;8.902;2022-10-16T07:53:57;9.35;;;5.40;;
22557;SDS011;11445;53.816;8.902;2022-10-16T07:56:24;11.48;;;5.22;;
22557;SDS011;11445;53.816;8.902;2022-10-16T07:58:53;9.50;;;5.22;;
22557;SDS011;11445;53.816;8.902;2022-10-16T08:01:21;9.52;;;4.90;;
22557;SDS011;11445;53.816;8.902;2022-10-16T08:03:48;10.43;;;4.97;;
22557;SDS011;11445;53.816;8.902;2022-10-16T08:06:16;7.45;;;4.95;;
22557;SDS011;11445;53.816;8.902;2022-10-16T08:08:44;12.95;;;5.00;;
22557;SDS011;11445;53.816;8.902;2022-10-16T08:11:12;13.02;;;5.40;;
22557;SDS011;11445;53.816;8.902;2022-10-16T08:13:40;14.02;;;5.18;;
22557;SDS011;11445;53.816;8.902;2022-10-16T08:16:08;12.10;;;5.10;;
22557;SDS011;11445;53.816;8.902;2022-10-16T08:18:37;9.13;;;5.47;;
22557;SDS011;11445;53.816;8.902;2022-10-16T08:21:05;7.88;;;4.28;;
22557;SDS011;11445;53.816;8.902;2022-10-16T08:23:33;13.73;;;4.85;;
22557;SDS011;11445;53.816;8.902;2022-10-16T08:26:02;16.00;;;5.00;;
22557;SDS011;11445;53.816;8.902;2022-10-16T08:28:30;6.65;;;4.50;;
22557;SDS011;11445;53.816;8.902;2022-10-16T08:31:04;7.65;;;4.38;;
22557;SDS011;11445;53.816;8.902;2022-10-16T08:33:34;7.18;;;4.28;;
22557;SDS011;11445;53.816;8.902;2022-10-16T08:36:01;7.68;;;5.13;;
22557;SDS011;11445;53.816;8.902;2022-10-16T08:38:29;5.82;;;4.60;;
22557;SDS011;11445;53.816;8.902;2022-10-16T08:40:57;9.40;;;5.00;;
22557;SDS011;11445;53.816;8.902;2022-10-16T08:43:56;6.60;;;4.28;;
22557;SDS011;11445;53.816;8.902;2022-10-16T08:47:02;7.00;;;4.13;;
22557;SDS011;11445;53.816;8.902;2022-10-16T08:49:40;7.18;;;4.20;;
22557;SDS011;11445;53.816;8.902;2022-10-16T08:52:14;10.50;;;4.50;;
22557;SDS011;11445;53.816;8.902;2022-10-16T08:54:42;11.40;;;4.22;;
22557;SDS011;11445;53.816;8.902;2022-10-16T08:57:13;16.77;;;4.35;;
22557;SDS011;11445;53.816;8.902;2022-10-16T08:59:43;9.15;;;4.60;;
22557;SDS011;11445;53.816;8.902;2022-10-16T09:02:19;9.23;;;3.60;;
22557;SDS011;11445;53.816;8.902;2022-10-16T09:04:54;6.05;;;4.00;;
22557;SDS011;11445;53.816;8.902;2022-10-16T09:07:29;11.73;;;3.60;;
22557;SDS011;11445;53.816;8.902;2022-10-16T09:10:10;8.88;;;3.15;;
22557;SDS011;11445;53.816;8.902;2022-10-16T09:12:46;12.25;;;4.05;;
22557;SDS011;11445;53.816;8.902;2022-10-16T09:15:21;6.65;;;3.00;;
22557;SDS011;11445;53.816;8.902;2022-10-16T09:17:56;5.80;;;3.20;;
22557;SDS011;11445;53.816;8.902;2022-10-16T09:20:32;10.55;;;3.13;;
22557;SDS011;11445;53.816;8.902;2022-10-16T09:23:16;12.38;;;2.83;;
22557;SDS011;11445;53.816;8.902;2022-10-16T09:25:45;11.75;;;3.28;;
22557;SDS011;11445;53.816;8.902;2022-10-16T09:28:14;6.03;;;2.85;;
22557;SDS011;11445;53.816;8.902;2022-10-16T09:30:42;6.05;;;2.92;;
22557;SDS011;11445;53.816;8.902;2022-10-16T09:33:09;15.35;;;3.08;;
22557;SDS011;11445;53.816;8.902;2022-10-16T09:35:40;6.88;;;2.88;;
22557;SDS011;11445;53.816;8.902;2022-10-16T09:38:09;8.63;;;2.55;;
22557;SDS011;11445;53.816;8.902;2022-10-16T09:40:47;4.18;;;2.28;;
22557;SDS011;11445;53.816;8.902;2022-10-16T09:43:19;5.78;;;1.90;;
22557;SDS011;11445;53.816;8.902;2022-10-16T09:45:59;9.85;;;1.75;;
22557;SDS011;11445;53.816;8.902;2022-10-16T09:48:28;6.25;;;2.10;;
22557;SDS011;11445;53.816;8.902;2022-10-16T09:51:02;5.45;;;1.73;;
22557;SDS011;11445;53.816;8.902;2022-10-16T09:53:40;4.75;;;1.58;;
22557;SDS011;11445;53.816;8.902;2022-10-16T09:56:09;11.35;;;2.10;;
22557;SDS011;11445;53.816;8.902;2022-10-16T09:58:41;6.32;;;1.75;;
22557;SDS011;11445;53.816;8.902;2022-10-16T10:01:12;10.25;;;1.60;;
22557;SDS011;11445;53.816;8.902;2022-10-16T10:03:41;7.07;;;2.28;;
22557;SDS011;11445;53.816;8.902;2022-10-16T10:06:18;8.45;;;1.70;;
22557;SDS011;11445;53.816;8.902;2022-10-16T10:11:49;7.10;;;1.65;;
22557;SDS011;11445;53.816;8.902;2022-10-16T10:14:22;4.57;;;1.75;;
22557;SDS011;11445;53.816;8.902;2022-10-16T10:16:51;5.72;;;1.70;;
22557;SDS011;11445;53.816;8.902;2022-10-16T10:19:20;5.75;;;1.55;;
22557;SDS011;11445;53.816;8.902;2022-10-16T10:21:50;2.58;;;1.15;;
22557;SDS011;11445;53.816;8.902;2022-10-16T10:24:18;5.05;;;1.42;;
22557;SDS011;11445;53.816;8.902;2022-10-16T10:26:48;7.28;;;1.58;;
22557;SDS011;11445;53.816;8.902;2022-10-16T10:29:24;4.70;;;1.20;;
22557;SDS011;11445;53.816;8.902;2022-10-16T10:32:04;9.10;;;1.20;;
22557;SDS011;11445;53.816;8.902;2022-10-16T10:34:45;4.68;;;1.40;;
22557;SDS011;11445;53.816;8.902;2022-10-16T10:37:30;6.22;;;1.67;;
22557;SDS011;11445;53.816;8.902;2022-10-16T10:40:08;6.05;;;1.25;;
22557;SDS011;11445;53.816;8.902;2022-10-16T10:42:47;7.95;;;1.08;;
22557;SDS011;11445;53.816;8.902;2022-10-16T10:45:22;5.63;;;1.42;;
22557;SDS011;11445;53.816;8.902;2022-10-16T10:50:26;6.63;;;0.93;;
22557;SDS011;11445;53.816;8.902;2022-10-16T10:53:05;5.40;;;1.20;;
22557;SDS011;11445;53.816;8.902;2022-10-16T10:55:52;11.05;;;1.42;;
22557;SDS011;11445;53.816;8.902;2022-10-16T11:01:22;7.55;;;1.40;;
22557;SDS011;11445;53.816;8.902;2022-10-16T11:04:10;6.82;;;1.30;;
22557;SDS011;11445;53.816;8.902;2022-10-16T11:06:57;9.48;;;1.50;;
22557;SDS011;11445;53.816;8.902;2022-10-16T11:09:30;9.80;;;1.98;;
22557;SDS011;11445;53.816;8.902;2022-10-16T11:12:02;9.75;;;1.70;;
22557;SDS011;11445;53.816;8.902;2022-10-16T11:14:36;4.72;;;1.25;;
22557;SDS011;11445;53.816;8.902;2022-10-16T11:17:10;8.63;;;1.30;;
22557;SDS011;11445;53.816;8.902;2022-10-16T11:19:42;7.63;;;1.50;;
22557;SDS011;11445;53.816;8.902;2022-10-16T11:22:14;3.80;;;1.23;;
22557;SDS011;11445;53.816;8.902;2022-10-16T11:24:47;6.90;;;1.40;;
22557;SDS011;11445;53.816;8.902;2022-10-16T11:27:20;6.95;;;1.48;;
22557;SDS011;11445;53.816;8.902;2022-10-16T11:29:52;7.43;;;1.55;;
22557;SDS011;11445;53.816;8.902;2022-10-16T11:32:25;6.78;;;1.25;;
22557;SDS011;11445;53.816;8.902;2022-10-16T11:34:57;8.88;;;1.67;;
22557;SDS011;11445;53.816;8.902;2022-10-16T11:37:31;6.57;;;1.52;;
22557;SDS011;11445;53.816;8.902;2022-10-16T11:40:05;5.88;;;1.60;;
22557;SDS011;11445;53.816;8.902;2022-10-16T11:42:46;5.47;;;1.88;;
22557;SDS011;11445;53.816;8.902;2022-10-16T11:45:23;7.90;;;1.67;;
22557;SDS011;11445;53.816;8.902;2022-10-16T11:47:57;5.80;;;1.20;;
22557;SDS011;11445;53.816;8.902;2022-10-16T11:50:29;6.68;;;1.80;;
22557;SDS011;11445;53.816;8.902;2022-10-16T11:53:01;4.83;;;1.23;;
22557;SDS011;11445;53.816;8.902;2022-10-16T11:55:39;5.35;;;1.48;;
22557;SDS011;11445;53.816;8.902;2022-10-16T11:58:09;7.45;;;1.20;;
22557;SDS011;11445;53.816;8.902;2022-10-16T12:00:44;6.57;;;1.38;;
22557;SDS011;11445;53.816;8.902;2022-10-16T12:03:18;5.85;;;1.60;;
22557;SDS011;11445;53.816;8.902;2022-10-16T12:08:43;5.22;;;1.13;;
22557;SDS011;11445;53.816;8.902;2022-10-16T12:11:23;8.35;;;1.42;;
22557;SDS011;11445;53.816;8.902;2022-10-16T12:14:03;6.95;;;1.50;;
22557;SDS011;11445;53.816;8.902;2022-10-16T12:16:32;6.15;;;1.17;;
22557;SDS011;11445;53.816;8.902;2022-10-16T12:19:03;4.32;;;1.17;;
22557;SDS011;11445;53.816;8.902;2022-10-16T12:21:38;4.50;;;1.27;;
22557;SDS011;11445;53.816;8.902;2022-10-16T12:24:05;8.43;;;1.60;;
22557;SDS011;11445;53.816;8.902;2022-10-16T12:26:48;8.95;;;1.50;;
22557;SDS011;11445;53.816;8.902;2022-10-16T12:29:22;4.05;;;1.10;;
22557;SDS011;11445;53.816;8.902;2022-10-16T12:31:55;4.53;;;1.10;;
22557;SDS011;11445;53.816;8.902;2022-10-16T12:34:23;5.45;;;1.10;;
22557;SDS011;11445;53.816;8.902;2022-10-16T12:36:54;7.93;;;1.55;;
22557;SDS011;11445;53.816;8.902;2022-10-16T12:39:22;7.70;;;1.38;;
22557;SDS011;11445;53.816;8.902;2022-10-16T12:42:01;7.38;;;1.30;;
22557;SDS011;11445;53.816;8.902;2022-10-16T12:44:33;7.55;;;1.65;;
22557;SDS011;11445;53.816;8.902;2022-10-16T12:47:01;8.27;;;1.42;;
22557;SDS011;11445;53.816;8.902;2022-10-16T12:49:30;7.60;;;1.30;;
22557;SDS011;11445;53.816;8.902;2022-10-16T12:52:00;6.68;;;1.35;;
22557;SDS011;11445;53.816;8.902;2022-10-16T12:54:29;6.57;;;1.20;;
22557;SDS011;11445;53.816;8.902;2022-10-16T12:59:51;7.57;;;1.13;;
22557;SDS011;11445;53.816;8.902;2022-10-16T13:02:45;6.68;;;1.50;;
22557;SDS011;11445;53.816;8.902;2022-10-16T13:05:40;8.95;;;1.02;;
22557;SDS011;11445;53.816;8.902;2022-10-16T13:08:19;9.02;;;1.70;;
22557;SDS011;11445;53.816;8.902;2022-10-16T13:11:02;12.70;;;1.48;;
22557;SDS011;11445;53.816;8.902;2022-10-16T13:13:46;11.40;;;2.03;;
22557;SDS011;11445;53.816;8.902;2022-10-16T13:19:04;13.80;;;3.40;;
22557;SDS011;11445;53.816;8.902;2022-10-16T13:21:43;5.90;;;1.70;;
22557;SDS011;11445;53.816;8.902;2022-10-16T13:24:21;9.18;;;1.40;;
22557;SDS011;11445;53.816;8.902;2022-10-16T13:26:59;13.68;;;1.35;;
22557;SDS011;11445;53.816;8.902;2022-10-16T13:29:33;10.52;;;1.58;;
22557;SDS011;11445;53.816;8.902;2022-10-16T13:32:00;3.22;;;1.27;;
22557;SDS011;11445;53.816;8.902;2022-10-16T13:34:44;5.38;;;1.38;;
22557;SDS011;11445;53.816;8.902;2022-10-16T13:37:18;9.38;;;1.80;;
22557;SDS011;11445;53.816;8.902;2022-10-16T13:39:47;8.07;;;1.35;;
22557;SDS011;11445;53.816;8.902;2022-10-16T13:42:18;7.13;;;1.48;;
22557;SDS011;11445;53.816;8.902;2022-10-16T13:47:18;7.10;;;1.67;;
22557;SDS011;11445;53.816;8.902;2022-10-16T13:49:46;10.10;;;1.50;;
22557;SDS011;11445;53.816;8.902;2022-10-16T13:52:25;9.85;;;1.50;;
22557;SDS011;11445;53.816;8.902;2022-10-16T13:54:52;16.30;;;1.80;;
22557;SDS011;11445;53.816;8.902;2022-10-16T13:57:21;5.78;;;1.50;;
22557;SDS011;11445;53.816;8.902;2022-10-16T13:59:50;11.15;;;1.40;;
22557;SDS011;11445;53.816;8.902;2022-10-16T14:02:19;9.73;;;1.40;;
22557;SDS011;11445;53.816;8.902;2022-10-16T14:07:19;10.02;;;1.77;;
22557;SDS011;11445;53.816;8.902;2022-10-16T14:09:50;10.30;;;1.27;;
22557;SDS011;11445;53.816;8.902;2022-10-16T14:12:18;9.30;;;1.58;;
22557;SDS011;11445;53.816;8.902;2022-10-16T14:14:46;4.53;;;1.60;;
22557;SDS011;11445;53.816;8.902;2022-10-16T14:17:18;6.93;;;1.63;;
22557;SDS011;11445;53.816;8.902;2022-10-16T14:19:46;7.30;;;1.63;;
22557;SDS011;11445;53.816;8.902;2022-10-16T14:22:20;8.77;;;1.80;;
22557;SDS011;11445;53.816;8.902;2022-10-16T14:24:54;9.63;;;1.58;;
22557;SDS011;11445;53.816;8.902;2022-10-16T14:27:24;8.43;;;1.50;;
22557;SDS011;11445;53.816;8.902;2022-10-16T14:30:14;8.57;;;1.13;;
22557;SDS011;11445;53.816;8.902;2022-10-16T14:32:53;13.00;;;1.83;;
22557;SDS011;11445;53.816;8.902;2022-10-16T14:35:23;10.95;;;2.60;;
22557;SDS011;11445;53.816;8.902;2022-10-16T14:37:52;8.55;;;1.98;;
22557;SDS011;11445;53.816;8.902;2022-10-16T14:40:20;10.25;;;1.90;;
22557;SDS011;11445;53.816;8.902;2022-10-16T14:42:49;11.57;;;1.83;;
22557;SDS011;11445;53.816;8.902;2022-10-16T14:45:18;12.48;;;1.95;;
22557;SDS011;11445;53.816;8.902;2022-10-16T14:47:48;11.82;;;2.10;;
22557;SDS011;11445;53.816;8.902;2022-10-16T14:50:19;15.73;;;1.85;;
22557;SDS011;11445;53.816;8.902;2022-10-16T14:52:46;8.32;;;1.77;;
22557;SDS011;11445;53.816;8.902;2022-10-16T14:55:13;15.95;;;1.50;;
22557;SDS011;11445;53.816;8.902;2022-10-16T14:57:41;11.60;;;2.25;;
22557;SDS011;11445;53.816;8.902;2022-10-16T15:00:13;10.20;;;1.98;;
22557;SDS011;11445;53.816;8.902;2022-10-16T15:02:43;12.13;;;2.25;;
22557;SDS011;11445;53.816;8.902;2022-10-16T15:05:12;10.15;;;2.00;;
22557;SDS011;11445;53.816;8.902;2022-10-16T15:07:43;14.48;;;2.70;;
22557;SDS011;11445;53.816;8.902;2022-10-16T15:10:11;11.85;;;2.03;;
22557;SDS011;11445;53.816;8.902;2022-10-16T15:12:38;12.07;;;2.10;;
22557;SDS011;11445;53.816;8.902;2022-10-16T15:15:15;11.07;;;2.63;;
22557;SDS011;11445;53.816;8.902;2022-10-16T15:17:51;16.75;;;1.85;;
22557;SDS011;11445;53.816;8.902;2022-10-16T15:20:21;14.18;;;3.00;;
22557;SDS011;11445;53.816;8.902;2022-10-16T15:22:50;18.20;;;2.67;;
22557;SDS011;11445;53.816;8.902;2022-10-16T15:25:24;18.25;;;2.50;;
22557;SDS011;11445;53.816;8.902;2022-10-16T15:27:57;17.23;;;2.45;;